sensor_id;sensor_type;location;lat;lon;timestamp;P1;durP1;ratioP1;P2;durP2;ratioP2
66633;SDS011;53546;52.184;5.596;2022-09-09T00:00:23;0.93;;;0.60;;
66633;SDS011;53546;52.184;5.596;2022-09-09T00:02:53;0.73;;;0.68;;
66633;SDS011;53546;52.184;5.596;2022-09-09T00:05:33;1.13;;;0.60;;
66633;SDS011;53546;52.184;5.596;2022-09-09T00:08:07;0.88;;;0.65;;
66633;SDS011;53546;52.184;5.596;2022-09-09T00:10:59;1.20;;;0.80;;
66633;SDS011;53546;52.184;5.596;2022-09-09T00:19:05;1.20;;;0.60;;
66633;SDS011;53546;52.184;5.596;2022-09-09T00:21:33;1.08;;;0.80;;
66633;SDS011;53546;52.184;5.596;2022-09-09T00:24:01;0.93;;;0.70;;
66633;SDS011;53546;52.184;5.596;2022-09-09T00:26:51;1.60;;;0.70;;
66633;SDS011;53546;52.184;5.596;2022-09-09T00:29:26;0.65;;;0.65;;
66633;SDS011;53546;52.184;5.596;2022-09-09T00:31:59;0.77;;;0.57;;
66633;SDS011;53546;52.184;5.596;2022-09-09T00:34:33;0.60;;;0.60;;
66633;SDS011;53546;52.184;5.596;2022-09-09T00:36:59;0.52;;;0.50;;
66633;SDS011;53546;52.184;5.596;2022-09-09T00:47:47;0.43;;;0.43;;
66633;SDS011;53546;52.184;5.596;2022-09-09T00:58:34;2.22;;;0.70;;
66633;SDS011;53546;52.184;5.596;2022-09-09T01:01:04;1.23;;;0.70;;
66633;SDS011;53546;52.184;5.596;2022-09-09T01:03:37;1.23;;;0.60;;
66633;SDS011;53546;52.184;5.596;2022-09-09T01:06:29;0.60;;;0.60;;
66633;SDS011;53546;52.184;5.596;2022-09-09T01:11:52;1.48;;;0.70;;
66633;SDS011;53546;52.184;5.596;2022-09-09T01:17:03;0.95;;;0.75;;
66633;SDS011;53546;52.184;5.596;2022-09-09T01:22:58;0.75;;;0.60;;
66633;SDS011;53546;52.184;5.596;2022-09-09T01:27:50;1.00;;;0.65;;
66633;SDS011;53546;52.184;5.596;2022-09-09T01:30:18;0.90;;;0.70;;
66633;SDS011;53546;52.184;5.596;2022-09-09T01:32:51;0.55;;;0.50;;
66633;SDS011;53546;52.184;5.596;2022-09-09T01:38:13;1.02;;;0.80;;
66633;SDS011;53546;52.184;5.596;2022-09-09T01:40:39;0.85;;;0.52;;
66633;SDS011;53546;52.184;5.596;2022-09-09T01:43:04;1.25;;;0.70;;
66633;SDS011;53546;52.184;5.596;2022-09-09T01:45:31;0.77;;;0.57;;
66633;SDS011;53546;52.184;5.596;2022-09-09T01:47:56;1.30;;;0.70;;
66633;SDS011;53546;52.184;5.596;2022-09-09T01:50:22;1.65;;;0.50;;
66633;SDS011;53546;52.184;5.596;2022-09-09T01:52:58;1.67;;;0.80;;
66633;SDS011;53546;52.184;5.596;2022-09-09T01:58:11;4.07;;;0.50;;
66633;SDS011;53546;52.184;5.596;2022-09-09T02:00:46;0.77;;;0.77;;
66633;SDS011;53546;52.184;5.596;2022-09-09T02:08:26;2.70;;;0.80;;
66633;SDS011;53546;52.184;5.596;2022-09-09T02:13:36;2.08;;;0.85;;
66633;SDS011;53546;52.184;5.596;2022-09-09T02:18:42;0.95;;;0.80;;
66633;SDS011;53546;52.184;5.596;2022-09-09T02:21:10;0.80;;;0.80;;
66633;SDS011;53546;52.184;5.596;2022-09-09T02:23:36;1.45;;;0.90;;
66633;SDS011;53546;52.184;5.596;2022-09-09T02:26:04;3.60;;;0.90;;
66633;SDS011;53546;52.184;5.596;2022-09-09T02:28:32;0.70;;;0.70;;
66633;SDS011;53546;52.184;5.596;2022-09-09T02:30:58;0.77;;;0.50;;
66633;SDS011;53546;52.184;5.596;2022-09-09T02:33:25;2.88;;;1.10;;
66633;SDS011;53546;52.184;5.596;2022-09-09T02:35:52;2.13;;;0.70;;
66633;SDS011;53546;52.184;5.596;2022-09-09T02:38:18;0.65;;;0.65;;
66633;SDS011;53546;52.184;5.596;2022-09-09T02:40:45;0.57;;;0.50;;
66633;SDS011;53546;52.184;5.596;2022-09-09T02:43:11;2.75;;;0.70;;
66633;SDS011;53546;52.184;5.596;2022-09-09T02:45:42;1.15;;;0.80;;
66633;SDS011;53546;52.184;5.596;2022-09-09T02:50:56;0.80;;;0.70;;
66633;SDS011;53546;52.184;5.596;2022-09-09T02:53:48;2.08;;;0.70;;
66633;SDS011;53546;52.184;5.596;2022-09-09T02:56:21;0.77;;;0.70;;
66633;SDS011;53546;52.184;5.596;2022-09-09T02:58:48;0.70;;;0.70;;
66633;SDS011;53546;52.184;5.596;2022-09-09T03:01:14;0.60;;;0.60;;
66633;SDS011;53546;52.184;5.596;2022-09-09T03:03:39;1.35;;;0.90;;
66633;SDS011;53546;52.184;5.596;2022-09-09T03:06:06;0.75;;;0.70;;
66633;SDS011;53546;52.184;5.596;2022-09-09T03:08:32;0.93;;;0.80;;
66633;SDS011;53546;52.184;5.596;2022-09-09T03:11:00;0.77;;;0.63;;
66633;SDS011;53546;52.184;5.596;2022-09-09T03:13:28;1.13;;;0.70;;
66633;SDS011;53546;52.184;5.596;2022-09-09T03:15:54;0.98;;;0.80;;
66633;SDS011;53546;52.184;5.596;2022-09-09T03:18:19;0.50;;;0.50;;
66633;SDS011;53546;52.184;5.596;2022-09-09T03:20:45;0.85;;;0.60;;
66633;SDS011;53546;52.184;5.596;2022-09-09T03:23:13;2.35;;;0.65;;
66633;SDS011;53546;52.184;5.596;2022-09-09T03:25:38;0.85;;;0.63;;
66633;SDS011;53546;52.184;5.596;2022-09-09T03:28:04;1.60;;;0.63;;
66633;SDS011;53546;52.184;5.596;2022-09-09T03:30:30;0.60;;;0.60;;
66633;SDS011;53546;52.184;5.596;2022-09-09T03:32:55;0.85;;;0.60;;
66633;SDS011;53546;52.184;5.596;2022-09-09T03:35:21;0.73;;;0.73;;
66633;SDS011;53546;52.184;5.596;2022-09-09T03:37:47;1.95;;;0.68;;
66633;SDS011;53546;52.184;5.596;2022-09-09T03:40:12;0.65;;;0.60;;
66633;SDS011;53546;52.184;5.596;2022-09-09T03:42:38;0.60;;;0.60;;
66633;SDS011;53546;52.184;5.596;2022-09-09T03:45:05;0.77;;;0.77;;
66633;SDS011;53546;52.184;5.596;2022-09-09T03:47:31;1.48;;;0.70;;
66633;SDS011;53546;52.184;5.596;2022-09-09T03:49:57;0.85;;;0.60;;
66633;SDS011;53546;52.184;5.596;2022-09-09T03:52:22;1.58;;;0.80;;
66633;SDS011;53546;52.184;5.596;2022-09-09T03:54:50;1.02;;;0.68;;
66633;SDS011;53546;52.184;5.596;2022-09-09T03:57:16;0.70;;;0.70;;
66633;SDS011;53546;52.184;5.596;2022-09-09T03:59:42;2.05;;;0.80;;
66633;SDS011;53546;52.184;5.596;2022-09-09T04:02:08;1.25;;;0.80;;
66633;SDS011;53546;52.184;5.596;2022-09-09T04:04:33;0.93;;;0.70;;
66633;SDS011;53546;52.184;5.596;2022-09-09T04:06:59;1.58;;;0.70;;
66633;SDS011;53546;52.184;5.596;2022-09-09T04:09:24;0.70;;;0.65;;
66633;SDS011;53546;52.184;5.596;2022-09-09T04:11:50;2.15;;;0.80;;
66633;SDS011;53546;52.184;5.596;2022-09-09T04:14:15;2.65;;;1.00;;
66633;SDS011;53546;52.184;5.596;2022-09-09T04:16:41;2.92;;;0.80;;
66633;SDS011;53546;52.184;5.596;2022-09-09T04:19:09;2.17;;;0.85;;
66633;SDS011;53546;52.184;5.596;2022-09-09T04:21:35;3.58;;;1.60;;
66633;SDS011;53546;52.184;5.596;2022-09-09T04:24:01;4.70;;;1.45;;
66633;SDS011;53546;52.184;5.596;2022-09-09T04:26:26;3.83;;;1.67;;
66633;SDS011;53546;52.184;5.596;2022-09-09T04:28:51;4.93;;;1.60;;
66633;SDS011;53546;52.184;5.596;2022-09-09T04:31:18;9.40;;;2.13;;
66633;SDS011;53546;52.184;5.596;2022-09-09T04:33:46;5.15;;;1.75;;
66633;SDS011;53546;52.184;5.596;2022-09-09T04:36:12;5.05;;;1.67;;
66633;SDS011;53546;52.184;5.596;2022-09-09T04:38:38;4.07;;;1.83;;
66633;SDS011;53546;52.184;5.596;2022-09-09T04:41:03;4.68;;;1.83;;
66633;SDS011;53546;52.184;5.596;2022-09-09T04:43:29;5.90;;;1.92;;
66633;SDS011;53546;52.184;5.596;2022-09-09T04:45:55;4.50;;;1.40;;
66633;SDS011;53546;52.184;5.596;2022-09-09T04:48:21;6.53;;;1.55;;
66633;SDS011;53546;52.184;5.596;2022-09-09T04:50:53;7.15;;;1.77;;
66633;SDS011;53546;52.184;5.596;2022-09-09T04:53:23;3.72;;;1.08;;
66633;SDS011;53546;52.184;5.596;2022-09-09T04:55:48;8.07;;;1.40;;
66633;SDS011;53546;52.184;5.596;2022-09-09T04:58:14;3.25;;;1.40;;
66633;SDS011;53546;52.184;5.596;2022-09-09T05:00:40;14.75;;;4.05;;
66633;SDS011;53546;52.184;5.596;2022-09-09T05:03:07;11.25;;;3.72;;
66633;SDS011;53546;52.184;5.596;2022-09-09T05:05:34;21.67;;;4.65;;
66633;SDS011;53546;52.184;5.596;2022-09-09T05:08:03;22.73;;;5.00;;
66633;SDS011;53546;52.184;5.596;2022-09-09T05:10:30;18.98;;;4.43;;
66633;SDS011;53546;52.184;5.596;2022-09-09T05:12:56;18.95;;;4.18;;
66633;SDS011;53546;52.184;5.596;2022-09-09T05:15:21;10.82;;;3.17;;
66633;SDS011;53546;52.184;5.596;2022-09-09T05:17:46;9.88;;;2.58;;
66633;SDS011;53546;52.184;5.596;2022-09-09T05:20:12;8.98;;;1.92;;
66633;SDS011;53546;52.184;5.596;2022-09-09T05:22:37;7.50;;;1.98;;
66633;SDS011;53546;52.184;5.596;2022-09-09T05:25:03;5.72;;;2.22;;
66633;SDS011;53546;52.184;5.596;2022-09-09T05:27:29;6.93;;;1.52;;
66633;SDS011;53546;52.184;5.596;2022-09-09T05:29:56;3.83;;;1.48;;
66633;SDS011;53546;52.184;5.596;2022-09-09T05:32:22;5.57;;;1.48;;
66633;SDS011;53546;52.184;5.596;2022-09-09T05:34:48;9.23;;;1.83;;
66633;SDS011;53546;52.184;5.596;2022-09-09T05:37:13;7.43;;;1.95;;
66633;SDS011;53546;52.184;5.596;2022-09-09T05:39:38;2.60;;;1.50;;
66633;SDS011;53546;52.184;5.596;2022-09-09T05:42:04;7.85;;;1.70;;
66633;SDS011;53546;52.184;5.596;2022-09-09T05:44:30;5.03;;;1.45;;
66633;SDS011;53546;52.184;5.596;2022-09-09T05:46:55;1.73;;;1.08;;
66633;SDS011;53546;52.184;5.596;2022-09-09T05:49:22;5.05;;;1.50;;
66633;SDS011;53546;52.184;5.596;2022-09-09T05:51:49;4.65;;;1.23;;
66633;SDS011;53546;52.184;5.596;2022-09-09T05:54:15;6.47;;;1.38;;
66633;SDS011;53546;52.184;5.596;2022-09-09T05:56:41;3.33;;;1.50;;
66633;SDS011;53546;52.184;5.596;2022-09-09T05:59:06;2.53;;;1.50;;
66633;SDS011;53546;52.184;5.596;2022-09-09T06:01:33;2.75;;;1.00;;
66633;SDS011;53546;52.184;5.596;2022-09-09T06:03:59;6.30;;;1.73;;
66633;SDS011;53546;52.184;5.596;2022-09-09T06:06:25;4.53;;;1.17;;
66633;SDS011;53546;52.184;5.596;2022-09-09T06:08:53;2.83;;;1.20;;
66633;SDS011;53546;52.184;5.596;2022-09-09T06:11:23;9.48;;;1.65;;
66633;SDS011;53546;52.184;5.596;2022-09-09T06:13:51;2.38;;;1.20;;
66633;SDS011;53546;52.184;5.596;2022-09-09T06:16:19;5.68;;;1.13;;
66633;SDS011;53546;52.184;5.596;2022-09-09T06:18:48;8.02;;;1.52;;
66633;SDS011;53546;52.184;5.596;2022-09-09T06:21:17;2.60;;;1.05;;
66633;SDS011;53546;52.184;5.596;2022-09-09T06:23:44;2.90;;;1.13;;
66633;SDS011;53546;52.184;5.596;2022-09-09T06:26:11;3.00;;;1.20;;
66633;SDS011;53546;52.184;5.596;2022-09-09T06:28:38;3.42;;;1.15;;
66633;SDS011;53546;52.184;5.596;2022-09-09T06:31:08;6.20;;;1.35;;
66633;SDS011;53546;52.184;5.596;2022-09-09T06:33:36;2.90;;;1.38;;
66633;SDS011;53546;52.184;5.596;2022-09-09T06:36:04;2.58;;;1.10;;
66633;SDS011;53546;52.184;5.596;2022-09-09T06:38:30;1.85;;;1.00;;
66633;SDS011;53546;52.184;5.596;2022-09-09T06:40:57;4.43;;;1.20;;
66633;SDS011;53546;52.184;5.596;2022-09-09T06:43:24;7.80;;;1.70;;
66633;SDS011;53546;52.184;5.596;2022-09-09T06:45:54;3.83;;;1.30;;
66633;SDS011;53546;52.184;5.596;2022-09-09T06:48:21;1.80;;;1.00;;
66633;SDS011;53546;52.184;5.596;2022-09-09T06:50:46;1.98;;;1.02;;
66633;SDS011;53546;52.184;5.596;2022-09-09T06:53:12;1.75;;;0.90;;
66633;SDS011;53546;52.184;5.596;2022-09-09T06:55:37;3.65;;;1.20;;
66633;SDS011;53546;52.184;5.596;2022-09-09T06:58:07;4.32;;;1.05;;
66633;SDS011;53546;52.184;5.596;2022-09-09T07:00:33;4.47;;;1.00;;
66633;SDS011;53546;52.184;5.596;2022-09-09T07:02:58;3.58;;;1.05;;
66633;SDS011;53546;52.184;5.596;2022-09-09T07:05:24;2.83;;;1.10;;
66633;SDS011;53546;52.184;5.596;2022-09-09T07:07:50;2.90;;;0.93;;
66633;SDS011;53546;52.184;5.596;2022-09-09T07:10:16;1.80;;;1.00;;
66633;SDS011;53546;52.184;5.596;2022-09-09T07:12:42;2.17;;;1.00;;
66633;SDS011;53546;52.184;5.596;2022-09-09T07:15:08;4.00;;;1.50;;
66633;SDS011;53546;52.184;5.596;2022-09-09T07:17:34;1.08;;;0.93;;
66633;SDS011;53546;52.184;5.596;2022-09-09T07:20:00;4.25;;;1.10;;
66633;SDS011;53546;52.184;5.596;2022-09-09T07:22:27;3.30;;;1.42;;
66633;SDS011;53546;52.184;5.596;2022-09-09T07:24:53;7.20;;;1.13;;
66633;SDS011;53546;52.184;5.596;2022-09-09T07:27:18;3.42;;;1.08;;
66633;SDS011;53546;52.184;5.596;2022-09-09T07:29:43;3.40;;;1.40;;
66633;SDS011;53546;52.184;5.596;2022-09-09T07:32:10;6.53;;;1.13;;
66633;SDS011;53546;52.184;5.596;2022-09-09T07:34:35;2.88;;;1.30;;
66633;SDS011;53546;52.184;5.596;2022-09-09T07:37:01;4.60;;;1.20;;
66633;SDS011;53546;52.184;5.596;2022-09-09T07:39:26;2.30;;;1.00;;
66633;SDS011;53546;52.184;5.596;2022-09-09T07:41:52;2.53;;;1.10;;
66633;SDS011;53546;52.184;5.596;2022-09-09T07:44:20;3.15;;;1.23;;
66633;SDS011;53546;52.184;5.596;2022-09-09T07:46:46;4.57;;;1.17;;
66633;SDS011;53546;52.184;5.596;2022-09-09T07:49:12;3.03;;;1.10;;
66633;SDS011;53546;52.184;5.596;2022-09-09T07:51:39;4.60;;;1.15;;
66633;SDS011;53546;52.184;5.596;2022-09-09T07:54:07;2.88;;;1.08;;
66633;SDS011;53546;52.184;5.596;2022-09-09T07:56:34;5.15;;;1.35;;
66633;SDS011;53546;52.184;5.596;2022-09-09T07:59:00;2.90;;;1.10;;
66633;SDS011;53546;52.184;5.596;2022-09-09T08:01:27;2.83;;;1.00;;
66633;SDS011;53546;52.184;5.596;2022-09-09T08:06:23;6.07;;;1.10;;
66633;SDS011;53546;52.184;5.596;2022-09-09T08:08:50;2.90;;;1.10;;
66633;SDS011;53546;52.184;5.596;2022-09-09T08:11:16;2.20;;;1.08;;
66633;SDS011;53546;52.184;5.596;2022-09-09T08:13:42;2.30;;;1.00;;
66633;SDS011;53546;52.184;5.596;2022-09-09T08:16:13;1.58;;;0.80;;
66633;SDS011;53546;52.184;5.596;2022-09-09T08:18:41;1.67;;;1.05;;
66633;SDS011;53546;52.184;5.596;2022-09-09T08:23:36;2.90;;;1.10;;
66633;SDS011;53546;52.184;5.596;2022-09-09T08:26:04;2.30;;;1.23;;
66633;SDS011;53546;52.184;5.596;2022-09-09T08:28:31;2.78;;;1.40;;
66633;SDS011;53546;52.184;5.596;2022-09-09T08:31:04;1.48;;;0.90;;
66633;SDS011;53546;52.184;5.596;2022-09-09T08:33:30;2.58;;;0.95;;
66633;SDS011;53546;52.184;5.596;2022-09-09T08:35:55;2.40;;;0.90;;
66633;SDS011;53546;52.184;5.596;2022-09-09T08:38:21;3.72;;;1.35;;
66633;SDS011;53546;52.184;5.596;2022-09-09T08:40:46;3.50;;;0.95;;
66633;SDS011;53546;52.184;5.596;2022-09-09T08:43:14;2.30;;;1.00;;
66633;SDS011;53546;52.184;5.596;2022-09-09T08:46:03;3.33;;;1.08;;
66633;SDS011;53546;52.184;5.596;2022-09-09T08:51:10;4.25;;;1.35;;
66633;SDS011;53546;52.184;5.596;2022-09-09T08:53:38;2.30;;;1.20;;
66633;SDS011;53546;52.184;5.596;2022-09-09T08:56:11;2.08;;;1.08;;
66633;SDS011;53546;52.184;5.596;2022-09-09T08:58:44;2.65;;;1.10;;
66633;SDS011;53546;52.184;5.596;2022-09-09T09:12:11;3.00;;;1.33;;
66633;SDS011;53546;52.184;5.596;2022-09-09T09:14:41;2.22;;;1.00;;
66633;SDS011;53546;52.184;5.596;2022-09-09T09:17:10;1.85;;;1.00;;
66633;SDS011;53546;52.184;5.596;2022-09-09T09:19:38;3.70;;;1.30;;
66633;SDS011;53546;52.184;5.596;2022-09-09T09:27:21;1.73;;;0.90;;
66633;SDS011;53546;52.184;5.596;2022-09-09T09:29:57;3.33;;;1.10;;
66633;SDS011;53546;52.184;5.596;2022-09-09T09:32:23;2.28;;;0.82;;
66633;SDS011;53546;52.184;5.596;2022-09-09T09:34:58;2.67;;;1.25;;
66633;SDS011;53546;52.184;5.596;2022-09-09T09:37:30;3.67;;;1.42;;
66633;SDS011;53546;52.184;5.596;2022-09-09T09:40:11;2.95;;;1.17;;
66633;SDS011;53546;52.184;5.596;2022-09-09T09:42:47;3.05;;;1.40;;
66633;SDS011;53546;52.184;5.596;2022-09-09T09:45:31;3.47;;;1.27;;
66633;SDS011;53546;52.184;5.596;2022-09-09T09:47:59;1.98;;;1.02;;
66633;SDS011;53546;52.184;5.596;2022-09-09T09:50:29;2.42;;;0.90;;
66633;SDS011;53546;52.184;5.596;2022-09-09T09:53:00;2.53;;;1.10;;
66633;SDS011;53546;52.184;5.596;2022-09-09T09:55:29;3.13;;;1.13;;
66633;SDS011;53546;52.184;5.596;2022-09-09T09:58:05;2.47;;;0.90;;
66633;SDS011;53546;52.184;5.596;2022-09-09T10:00:31;2.58;;;1.10;;
66633;SDS011;53546;52.184;5.596;2022-09-09T10:02:59;6.82;;;1.38;;
66633;SDS011;53546;52.184;5.596;2022-09-09T10:05:26;6.07;;;1.30;;
66633;SDS011;53546;52.184;5.596;2022-09-09T10:08:00;3.08;;;1.00;;
66633;SDS011;53546;52.184;5.596;2022-09-09T10:10:32;2.35;;;1.10;;
66633;SDS011;53546;52.184;5.596;2022-09-09T10:13:21;3.90;;;1.10;;
66633;SDS011;53546;52.184;5.596;2022-09-09T10:32:53;2.85;;;1.02;;
66633;SDS011;53546;52.184;5.596;2022-09-09T10:35:52;5.00;;;1.10;;
66633;SDS011;53546;52.184;5.596;2022-09-09T10:38:30;2.85;;;0.88;;
66633;SDS011;53546;52.184;5.596;2022-09-09T10:56:40;2.80;;;1.23;;
66633;SDS011;53546;52.184;5.596;2022-09-09T10:59:13;3.40;;;1.10;;
66633;SDS011;53546;52.184;5.596;2022-09-09T11:04:40;1.45;;;1.00;;
66633;SDS011;53546;52.184;5.596;2022-09-09T11:07:10;2.45;;;0.90;;
66633;SDS011;53546;52.184;5.596;2022-09-09T11:09:38;1.95;;;0.90;;
66633;SDS011;53546;52.184;5.596;2022-09-09T11:12:15;4.97;;;0.85;;
66633;SDS011;53546;52.184;5.596;2022-09-09T11:14:45;4.65;;;1.23;;
66633;SDS011;53546;52.184;5.596;2022-09-09T11:17:18;5.72;;;1.38;;
66633;SDS011;53546;52.184;5.596;2022-09-09T11:19:54;3.22;;;1.17;;
66633;SDS011;53546;52.184;5.596;2022-09-09T11:22:27;3.88;;;1.08;;
66633;SDS011;53546;52.184;5.596;2022-09-09T11:25:07;2.58;;;1.10;;
66633;SDS011;53546;52.184;5.596;2022-09-09T11:27:51;3.15;;;1.10;;
66633;SDS011;53546;52.184;5.596;2022-09-09T11:39:41;3.17;;;1.52;;
66633;SDS011;53546;52.184;5.596;2022-09-09T11:44:39;2.55;;;1.10;;
66633;SDS011;53546;52.184;5.596;2022-09-09T11:47:26;3.55;;;1.10;;
66633;SDS011;53546;52.184;5.596;2022-09-09T11:50:07;4.43;;;1.10;;
66633;SDS011;53546;52.184;5.596;2022-09-09T11:52:48;3.92;;;1.10;;
66633;SDS011;53546;52.184;5.596;2022-09-09T11:57:59;2.67;;;1.00;;
66633;SDS011;53546;52.184;5.596;2022-09-09T12:00:43;4.30;;;1.00;;
66633;SDS011;53546;52.184;5.596;2022-09-09T12:06:11;3.95;;;1.48;;
66633;SDS011;53546;52.184;5.596;2022-09-09T12:08:50;2.70;;;1.00;;
66633;SDS011;53546;52.184;5.596;2022-09-09T12:11:25;3.85;;;1.38;;
66633;SDS011;53546;52.184;5.596;2022-09-09T12:16:31;3.50;;;1.35;;
66633;SDS011;53546;52.184;5.596;2022-09-09T12:24:16;3.95;;;1.20;;
66633;SDS011;53546;52.184;5.596;2022-09-09T12:30:04;2.22;;;1.00;;
66633;SDS011;53546;52.184;5.596;2022-09-09T12:32:35;3.30;;;1.10;;
66633;SDS011;53546;52.184;5.596;2022-09-09T12:35:02;5.57;;;1.45;;
66633;SDS011;53546;52.184;5.596;2022-09-09T12:37:50;5.35;;;1.40;;
66633;SDS011;53546;52.184;5.596;2022-09-09T12:40:24;2.23;;;1.00;;
66633;SDS011;53546;52.184;5.596;2022-09-09T12:42:54;4.32;;;1.15;;
66633;SDS011;53546;52.184;5.596;2022-09-09T12:45:24;2.83;;;1.25;;
66633;SDS011;53546;52.184;5.596;2022-09-09T12:47:55;2.53;;;1.20;;
66633;SDS011;53546;52.184;5.596;2022-09-09T12:50:29;2.33;;;1.20;;
66633;SDS011;53546;52.184;5.596;2022-09-09T12:53:39;2.55;;;1.08;;
66633;SDS011;53546;52.184;5.596;2022-09-09T12:56:18;1.83;;;1.00;;
66633;SDS011;53546;52.184;5.596;2022-09-09T12:58:45;2.75;;;1.13;;
66633;SDS011;53546;52.184;5.596;2022-09-09T13:01:18;3.58;;;1.15;;
66633;SDS011;53546;52.184;5.596;2022-09-09T13:03:47;1.52;;;1.10;;
66633;SDS011;53546;52.184;5.596;2022-09-09T13:06:16;2.22;;;1.15;;
66633;SDS011;53546;52.184;5.596;2022-09-09T13:08:45;2.05;;;1.13;;
66633;SDS011;53546;52.184;5.596;2022-09-09T13:11:12;1.35;;;0.73;;
66633;SDS011;53546;52.184;5.596;2022-09-09T13:13:41;4.70;;;0.90;;
66633;SDS011;53546;52.184;5.596;2022-09-09T13:16:20;1.73;;;0.82;;
66633;SDS011;53546;52.184;5.596;2022-09-09T13:18:48;1.98;;;1.00;;
66633;SDS011;53546;52.184;5.596;2022-09-09T13:21:14;1.25;;;1.00;;
66633;SDS011;53546;52.184;5.596;2022-09-09T13:23:40;3.45;;;1.00;;
66633;SDS011;53546;52.184;5.596;2022-09-09T13:26:27;4.70;;;1.13;;
66633;SDS011;53546;52.184;5.596;2022-09-09T13:28:52;4.95;;;1.17;;
66633;SDS011;53546;52.184;5.596;2022-09-09T13:31:23;2.85;;;1.42;;
66633;SDS011;53546;52.184;5.596;2022-09-09T13:33:49;3.03;;;1.10;;
66633;SDS011;53546;52.184;5.596;2022-09-09T13:36:14;3.97;;;1.33;;
66633;SDS011;53546;52.184;5.596;2022-09-09T13:38:53;2.25;;;1.00;;
66633;SDS011;53546;52.184;5.596;2022-09-09T13:41:25;3.63;;;1.20;;
66633;SDS011;53546;52.184;5.596;2022-09-09T13:43:55;2.30;;;1.00;;
66633;SDS011;53546;52.184;5.596;2022-09-09T13:46:37;2.00;;;1.08;;
66633;SDS011;53546;52.184;5.596;2022-09-09T13:51:39;11.68;;;1.65;;
66633;SDS011;53546;52.184;5.596;2022-09-09T13:54:05;5.03;;;1.20;;
66633;SDS011;53546;52.184;5.596;2022-09-09T13:56:32;7.55;;;1.25;;
66633;SDS011;53546;52.184;5.596;2022-09-09T13:58:58;7.65;;;1.38;;
66633;SDS011;53546;52.184;5.596;2022-09-09T14:01:23;2.40;;;1.20;;
66633;SDS011;53546;52.184;5.596;2022-09-09T14:03:49;4.03;;;1.23;;
66633;SDS011;53546;52.184;5.596;2022-09-09T14:06:15;1.83;;;1.30;;
66633;SDS011;53546;52.184;5.596;2022-09-09T14:08:41;3.40;;;1.15;;
66633;SDS011;53546;52.184;5.596;2022-09-09T14:11:07;6.32;;;1.33;;
66633;SDS011;53546;52.184;5.596;2022-09-09T14:13:36;2.22;;;1.40;;
66633;SDS011;53546;52.184;5.596;2022-09-09T14:16:02;3.33;;;1.00;;
66633;SDS011;53546;52.184;5.596;2022-09-09T14:18:27;4.20;;;1.30;;
66633;SDS011;53546;52.184;5.596;2022-09-09T14:20:54;2.15;;;1.10;;
66633;SDS011;53546;52.184;5.596;2022-09-09T14:23:19;6.05;;;1.40;;
66633;SDS011;53546;52.184;5.596;2022-09-09T14:25:46;2.85;;;1.05;;
66633;SDS011;53546;52.184;5.596;2022-09-09T14:28:12;3.53;;;1.42;;
66633;SDS011;53546;52.184;5.596;2022-09-09T14:30:39;2.00;;;0.95;;
66633;SDS011;53546;52.184;5.596;2022-09-09T14:33:05;5.00;;;1.27;;
66633;SDS011;53546;52.184;5.596;2022-09-09T14:35:31;2.72;;;1.08;;
66633;SDS011;53546;52.184;5.596;2022-09-09T14:37:58;1.58;;;1.00;;
66633;SDS011;53546;52.184;5.596;2022-09-09T14:40:24;3.40;;;1.10;;
66633;SDS011;53546;52.184;5.596;2022-09-09T14:42:49;8.63;;;1.23;;
66633;SDS011;53546;52.184;5.596;2022-09-09T14:45:14;2.30;;;1.08;;
66633;SDS011;53546;52.184;5.596;2022-09-09T14:47:40;2.75;;;1.10;;
66633;SDS011;53546;52.184;5.596;2022-09-09T14:50:05;2.58;;;1.23;;
66633;SDS011;53546;52.184;5.596;2022-09-09T14:52:31;3.15;;;1.00;;
66633;SDS011;53546;52.184;5.596;2022-09-09T14:54:56;2.33;;;1.15;;
66633;SDS011;53546;52.184;5.596;2022-09-09T14:57:22;4.40;;;1.10;;
66633;SDS011;53546;52.184;5.596;2022-09-09T14:59:47;1.90;;;0.98;;
66633;SDS011;53546;52.184;5.596;2022-09-09T15:02:15;2.35;;;1.00;;
66633;SDS011;53546;52.184;5.596;2022-09-09T15:04:40;1.60;;;1.08;;
66633;SDS011;53546;52.184;5.596;2022-09-09T15:07:05;3.65;;;1.20;;
66633;SDS011;53546;52.184;5.596;2022-09-09T15:09:31;3.70;;;1.35;;
66633;SDS011;53546;52.184;5.596;2022-09-09T15:11:56;4.53;;;1.10;;
66633;SDS011;53546;52.184;5.596;2022-09-09T15:14:22;5.25;;;1.20;;
66633;SDS011;53546;52.184;5.596;2022-09-09T15:16:47;5.18;;;1.10;;
66633;SDS011;53546;52.184;5.596;2022-09-09T15:19:12;3.40;;;0.90;;
66633;SDS011;53546;52.184;5.596;2022-09-09T15:21:38;2.80;;;1.10;;
66633;SDS011;53546;52.184;5.596;2022-09-09T15:24:03;8.02;;;1.10;;
66633;SDS011;53546;52.184;5.596;2022-09-09T15:26:30;1.95;;;1.10;;
66633;SDS011;53546;52.184;5.596;2022-09-09T15:28:55;1.83;;;1.27;;
66633;SDS011;53546;52.184;5.596;2022-09-09T15:31:25;1.38;;;0.95;;
66633;SDS011;53546;52.184;5.596;2022-09-09T15:34:00;2.42;;;1.02;;
66633;SDS011;53546;52.184;5.596;2022-09-09T15:36:31;1.65;;;0.88;;
66633;SDS011;53546;52.184;5.596;2022-09-09T15:38:58;4.60;;;1.40;;
66633;SDS011;53546;52.184;5.596;2022-09-09T15:41:24;1.17;;;1.00;;
66633;SDS011;53546;52.184;5.596;2022-09-09T15:43:50;2.80;;;1.02;;
66633;SDS011;53546;52.184;5.596;2022-09-09T15:48:42;1.13;;;1.03;;
66633;SDS011;53546;52.184;5.596;2022-09-09T15:51:09;3.10;;;1.08;;
66633;SDS011;53546;52.184;5.596;2022-09-09T15:53:35;1.90;;;1.13;;
66633;SDS011;53546;52.184;5.596;2022-09-09T15:56:04;4.85;;;1.23;;
66633;SDS011;53546;52.184;5.596;2022-09-09T15:58:31;1.85;;;1.10;;
66633;SDS011;53546;52.184;5.596;2022-09-09T16:01:07;2.13;;;1.00;;
66633;SDS011;53546;52.184;5.596;2022-09-09T16:03:37;3.40;;;1.08;;
66633;SDS011;53546;52.184;5.596;2022-09-09T16:06:04;2.20;;;1.00;;
66633;SDS011;53546;52.184;5.596;2022-09-09T16:08:38;3.50;;;1.00;;
66633;SDS011;53546;52.184;5.596;2022-09-09T16:11:09;8.13;;;1.27;;
66633;SDS011;53546;52.184;5.596;2022-09-09T16:13:37;1.58;;;1.02;;
66633;SDS011;53546;52.184;5.596;2022-09-09T16:16:04;2.00;;;1.08;;
66633;SDS011;53546;52.184;5.596;2022-09-09T16:18:34;2.83;;;1.10;;
66633;SDS011;53546;52.184;5.596;2022-09-09T16:21:01;3.13;;;1.00;;
66633;SDS011;53546;52.184;5.596;2022-09-09T16:23:26;3.25;;;0.80;;
66633;SDS011;53546;52.184;5.596;2022-09-09T16:25:54;6.05;;;1.20;;
66633;SDS011;53546;52.184;5.596;2022-09-09T16:28:20;2.45;;;0.98;;
66633;SDS011;53546;52.184;5.596;2022-09-09T16:30:46;6.78;;;1.13;;
66633;SDS011;53546;52.184;5.596;2022-09-09T16:33:11;2.17;;;1.10;;
66633;SDS011;53546;52.184;5.596;2022-09-09T16:35:39;1.95;;;0.77;;
66633;SDS011;53546;52.184;5.596;2022-09-09T16:38:05;2.42;;;1.10;;
66633;SDS011;53546;52.184;5.596;2022-09-09T16:40:33;1.58;;;1.02;;
66633;SDS011;53546;52.184;5.596;2022-09-09T16:42:59;6.13;;;1.13;;
66633;SDS011;53546;52.184;5.596;2022-09-09T16:45:26;5.07;;;1.27;;
66633;SDS011;53546;52.184;5.596;2022-09-09T16:47:51;5.60;;;1.30;;
66633;SDS011;53546;52.184;5.596;2022-09-09T16:50:16;2.15;;;1.17;;
66633;SDS011;53546;52.184;5.596;2022-09-09T16:52:42;9.40;;;1.08;;
66633;SDS011;53546;52.184;5.596;2022-09-09T16:55:07;4.05;;;0.90;;
66633;SDS011;53546;52.184;5.596;2022-09-09T16:57:34;10.98;;;1.00;;
66633;SDS011;53546;52.184;5.596;2022-09-09T16:59:59;4.60;;;0.95;;
66633;SDS011;53546;52.184;5.596;2022-09-09T17:02:26;2.05;;;1.20;;
66633;SDS011;53546;52.184;5.596;2022-09-09T17:04:51;3.30;;;1.35;;
66633;SDS011;53546;52.184;5.596;2022-09-09T17:07:16;5.00;;;1.40;;
66633;SDS011;53546;52.184;5.596;2022-09-09T17:09:44;6.30;;;2.05;;
66633;SDS011;53546;52.184;5.596;2022-09-09T17:12:10;2.33;;;2.13;;
66633;SDS011;53546;52.184;5.596;2022-09-09T17:14:36;6.03;;;3.42;;
66633;SDS011;53546;52.184;5.596;2022-09-09T17:17:02;6.47;;;4.18;;
66633;SDS011;53546;52.184;5.596;2022-09-09T17:19:29;12.82;;;4.30;;
66633;SDS011;53546;52.184;5.596;2022-09-09T17:21:55;8.75;;;5.10;;